createdAt,value
2022-08-30T00:02:37.004Z,5.9
2022-08-30T00:08:28.402Z,8.4
2022-08-30T00:14:19.527Z,6.9
2022-08-30T00:20:11.681Z,9.9
2022-08-30T00:26:04.290Z,10.2
2022-08-30T00:31:54.280Z,9.6
2022-08-30T00:37:45.828Z,7
2022-08-30T00:43:39.597Z,8.6
2022-08-30T00:49:30.495Z,7.5
2022-08-30T00:55:21.967Z,8
2022-08-30T01:01:13.640Z,7.3
2022-08-30T01:07:04.407Z,7.1
2022-08-30T01:12:55.672Z,10.4
2022-08-30T01:18:52.886Z,7.2
2022-08-30T01:24:43.348Z,8.1
2022-08-30T01:30:34.640Z,8.2
2022-08-30T01:36:25.626Z,7.9
2022-08-30T01:42:16.330Z,10
2022-08-30T01:48:10.644Z,7.6
2022-08-30T01:54:05.601Z,8.4
2022-08-30T01:59:56.226Z,7.3
2022-08-30T02:05:47.811Z,9.3
2022-08-30T02:11:39.854Z,8.3
2022-08-30T02:17:32.417Z,7.5
2022-08-30T02:23:24.807Z,6.3
2022-08-30T02:29:15.767Z,8.7
2022-08-30T02:35:06.294Z,8.6
2022-08-30T02:40:57.868Z,7
2022-08-30T02:46:48.560Z,6.5
2022-08-30T02:52:39.853Z,7.9
2022-08-30T02:58:35.520Z,7.4
2022-08-30T03:04:31.862Z,7.1
2022-08-30T03:10:22.018Z,6.2
2022-08-30T03:16:12.989Z,7.8
2022-08-30T03:22:05.172Z,7.7
2022-08-30T03:27:56.299Z,6.9
2022-08-30T03:33:46.683Z,7.7
2022-08-30T03:39:37.481Z,7.9
2022-08-30T03:45:29.939Z,6.6
2022-08-30T03:51:21.129Z,7.9
2022-08-30T03:57:26.181Z,7
2022-08-30T04:03:16.380Z,6.8
2022-08-30T04:09:07.720Z,7.8
2022-08-30T04:14:59.310Z,9.4
2022-08-30T04:20:50.551Z,8.5
2022-08-30T04:26:43.350Z,7.6
2022-08-30T04:32:33.418Z,7.6
2022-08-30T04:38:33.545Z,7.5
2022-08-30T04:44:24.461Z,9.8
2022-08-30T04:50:15.203Z,9.4
2022-08-30T04:56:06.908Z,9
2022-08-30T05:01:59.462Z,11.4
2022-08-30T05:07:50.679Z,12.4
2022-08-30T05:13:43.097Z,8.5
2022-08-30T05:19:34.376Z,10.5
2022-08-30T05:25:26.399Z,9.4
2022-08-30T05:31:18.777Z,10.5
2022-08-30T05:37:09.739Z,10.3
2022-08-30T05:43:03.216Z,13.2
2022-08-30T05:48:54.451Z,14.5
2022-08-30T05:54:45.278Z,13.4
2022-08-30T06:00:43.558Z,9.3
2022-08-30T06:06:34.746Z,11.8
2022-08-30T06:12:27.287Z,14.1
2022-08-30T06:18:23.662Z,13
2022-08-30T06:24:24.864Z,12.8
2022-08-30T06:31:52.513Z,12.2
2022-08-30T06:37:46.285Z,10.9
2022-08-30T06:43:38.293Z,11
2022-08-30T06:49:35.356Z,11.6
2022-08-30T06:55:26.530Z,11.5
2022-08-30T07:01:18.094Z,8.4
2022-08-30T07:07:11.562Z,8.5
2022-08-30T07:13:05.446Z,9.3
2022-08-30T07:18:58.484Z,9.9
2022-08-30T07:24:50.960Z,8.8
2022-08-30T07:30:44.487Z,10
2022-08-30T07:36:38.345Z,10
2022-08-30T07:42:30.585Z,9.2
2022-08-30T07:48:23.761Z,10.6
2022-08-30T07:54:15.195Z,9.9
2022-08-30T08:00:06.487Z,7.9
2022-08-30T08:05:58.229Z,10.8
2022-08-30T08:11:50.335Z,9.7
2022-08-30T08:17:43.259Z,8
2022-08-30T08:23:35.136Z,7.6
2022-08-30T08:29:26.274Z,8.3
2022-08-30T08:35:19.752Z,11.2
2022-08-30T08:41:10.299Z,7.8
2022-08-30T08:47:04.709Z,8.2
2022-08-30T08:52:58.130Z,8
2022-08-30T08:58:50.124Z,8.2
2022-08-30T09:04:40.621Z,8.1
2022-08-30T09:10:53.998Z,8.6
2022-08-30T09:16:43.815Z,8
2022-08-30T09:22:34.920Z,8.2
2022-08-30T09:28:29.742Z,8.3
2022-08-30T09:34:21.647Z,8.1
2022-08-30T09:40:15.393Z,7.9
2022-08-30T09:46:09.879Z,8.8
2022-08-30T09:52:10.285Z,6.9
2022-08-30T09:58:01.351Z,8.2
2022-08-30T10:03:53.205Z,8.9
2022-08-30T10:09:45.867Z,7.8
2022-08-30T10:15:36.993Z,8.1
2022-08-30T10:21:29.752Z,9.5
2022-08-30T10:27:22.272Z,8.5
2022-08-30T10:33:13.601Z,7.4
2022-08-30T10:39:07.865Z,7
2022-08-30T10:45:04.699Z,7
2022-08-30T10:50:56.582Z,6.5
2022-08-30T10:56:49.163Z,6.4
2022-08-30T11:02:44.815Z,8.9
2022-08-30T11:08:36.001Z,9.4
2022-08-30T11:14:30.120Z,10.4
2022-08-30T11:20:22.852Z,8.3
2022-08-30T11:26:24.971Z,8.7
2022-08-30T11:32:16.600Z,8
2022-08-30T11:38:10.007Z,8.7
2022-08-30T11:44:06.520Z,6.8
2022-08-30T11:49:59.242Z,7
2022-08-30T11:55:52.699Z,7.4
2022-08-30T12:01:55.786Z,5.6
2022-08-30T12:07:46.775Z,6.4
2022-08-30T12:13:40.637Z,8.5
2022-08-30T12:19:33.810Z,8.9
2022-08-30T12:25:26.451Z,7.5
2022-08-30T12:31:20.628Z,8.5
2022-08-30T12:37:12.302Z,6.6
2022-08-30T12:43:10.965Z,7.5
2022-08-30T12:49:05.808Z,7.3
2022-08-30T12:54:58.259Z,8.4
2022-08-30T13:00:53.029Z,8.7
2022-08-30T13:06:45.692Z,6.8
2022-08-30T13:12:37.543Z,7
2022-08-30T13:18:32.153Z,7.2
2022-08-30T13:24:28.777Z,6.8
2022-08-30T13:30:19.478Z,6.2
2022-08-30T13:36:14.202Z,9.1
2022-08-30T13:42:37.684Z,8
2022-08-30T13:48:29.760Z,8
2022-08-30T13:54:19.381Z,8.8
2022-08-30T14:00:14.459Z,8.1
2022-08-30T14:07:11.754Z,7.4
2022-08-30T14:13:15.068Z,6.9
2022-08-30T14:19:07.553Z,5.7
2022-08-30T14:25:00.182Z,6.1
2022-08-30T14:30:55.971Z,8.5
2022-08-30T14:36:48.045Z,6.3
2022-08-30T14:42:39.254Z,7.4
2022-08-30T14:48:33.327Z,6.7
2022-08-30T14:54:27.144Z,6.1
2022-08-30T15:00:18.850Z,7.7
2022-08-30T15:06:15.743Z,8.6
2022-08-30T15:12:09.533Z,6.8
2022-08-30T15:18:01.997Z,6.7
2022-08-30T15:23:56.215Z,6
2022-08-30T15:29:48.783Z,7.6
2022-08-30T15:35:43.435Z,6.7
2022-08-30T15:41:33.847Z,9.4
2022-08-30T15:47:34.137Z,8.5
2022-08-30T15:53:26.836Z,6.5
2022-08-30T15:59:18.524Z,6.9
2022-08-30T16:05:09.557Z,9.4
2022-08-30T16:11:01.108Z,8.1
2022-08-30T16:16:52.489Z,7.9
2022-08-30T16:22:50.605Z,7.8
2022-08-30T16:28:42.099Z,6.2
2022-08-30T16:34:40.358Z,6.7
2022-08-30T16:40:33.148Z,5.6
2022-08-30T16:46:33.280Z,6.4
2022-08-30T16:52:24.941Z,7.3
2022-08-30T16:58:28.724Z,7.9
2022-08-30T17:04:23.318Z,9.5
2022-08-30T17:10:26.276Z,8.7
2022-08-30T17:16:32.287Z,6.8
2022-08-30T17:22:27.626Z,8.4
2022-08-30T17:28:23.361Z,6.5
2022-08-30T17:34:16.452Z,6.2
2022-08-30T17:40:17.422Z,7.8
2022-08-30T17:46:10.584Z,7.5
2022-08-30T17:52:03.193Z,7.3
2022-08-30T17:57:56.029Z,6.5
2022-08-30T18:04:01.769Z,7.1
2022-08-30T20:30:14.443Z,5.1
2022-08-30T20:36:04.181Z,7.6
2022-08-30T20:41:56.846Z,6.8
2022-08-30T20:47:48.169Z,7.6
2022-08-30T20:53:39.609Z,5.9
2022-08-30T20:59:31.487Z,7.4
2022-08-30T21:05:24.798Z,7.3
2022-08-30T21:11:16.235Z,7
2022-08-30T21:17:05.278Z,6.4
2022-08-30T21:22:56.368Z,10
2022-08-30T21:28:49.104Z,8.1
2022-08-30T21:34:40.438Z,6.8
2022-08-30T21:40:31.476Z,7.8
2022-08-30T21:46:22.232Z,7.3
2022-08-30T21:52:15.510Z,6.3
2022-08-30T21:58:16.980Z,8
2022-08-30T22:04:11.228Z,6.4
2022-08-30T22:10:01.558Z,7.1
2022-08-30T22:15:54.086Z,7.8
2022-08-30T22:21:50.023Z,6.8
2022-08-30T22:27:42.089Z,8.5
2022-08-30T22:33:33.499Z,6.5
2022-08-30T22:39:25.230Z,7.5
2022-08-30T22:45:18.766Z,6.2
2022-08-30T22:51:08.741Z,8.3
2022-08-30T22:57:00.743Z,8.2
2022-08-30T23:02:58.115Z,8
2022-08-30T23:08:50.394Z,8.3
2022-08-30T23:14:40.398Z,7.1
2022-08-30T23:20:31.490Z,6.2
2022-08-30T23:26:23.457Z,8.4
2022-08-30T23:32:14.754Z,8.6
2022-08-30T23:38:06.093Z,7.3
2022-08-30T23:43:58.701Z,7.6
2022-08-30T23:49:49.335Z,10.8
2022-08-30T23:55:40.370Z,9
